sensor_id;sensor_type;location;lat;lon;timestamp;temperature;humidity
13186;DHT22;6658;53.080;7.428;2023-02-02T00:01:21;6.10;99.90
13186;DHT22;6658;53.080;7.428;2023-02-02T00:03:47;6.00;99.90
13186;DHT22;6658;53.080;7.428;2023-02-02T00:06:16;5.90;99.90
13186;DHT22;6658;53.080;7.428;2023-02-02T00:08:42;5.90;99.90
13186;DHT22;6658;53.080;7.428;2023-02-02T00:11:08;5.90;99.90
13186;DHT22;6658;53.080;7.428;2023-02-02T00:13:34;5.90;99.90
13186;DHT22;6658;53.080;7.428;2023-02-02T00:16:40;5.90;99.90
13186;DHT22;6658;53.080;7.428;2023-02-02T00:19:12;5.90;99.90
13186;DHT22;6658;53.080;7.428;2023-02-02T00:21:38;5.80;99.90
13186;DHT22;6658;53.080;7.428;2023-02-02T00:24:08;5.80;99.90
13186;DHT22;6658;53.080;7.428;2023-02-02T00:26:35;5.70;99.90
13186;DHT22;6658;53.080;7.428;2023-02-02T00:29:01;5.60;99.90
13186;DHT22;6658;53.080;7.428;2023-02-02T00:31:27;5.50;99.90
13186;DHT22;6658;53.080;7.428;2023-02-02T00:33:53;5.40;99.90
13186;DHT22;6658;53.080;7.428;2023-02-02T00:36:20;5.40;99.90
13186;DHT22;6658;53.080;7.428;2023-02-02T00:38:47;5.30;99.90
13186;DHT22;6658;53.080;7.428;2023-02-02T00:41:17;5.20;99.90
13186;DHT22;6658;53.080;7.428;2023-02-02T00:43:43;5.10;99.90
13186;DHT22;6658;53.080;7.428;2023-02-02T00:46:18;5.10;99.90
13186;DHT22;6658;53.080;7.428;2023-02-02T00:48:44;5.00;99.90
13186;DHT22;6658;53.080;7.428;2023-02-02T00:51:09;4.90;99.90
13186;DHT22;6658;53.080;7.428;2023-02-02T00:53:35;4.80;99.90
13186;DHT22;6658;53.080;7.428;2023-02-02T00:56:01;4.70;99.90
13186;DHT22;6658;53.080;7.428;2023-02-02T00:58:27;4.60;99.90
13186;DHT22;6658;53.080;7.428;2023-02-02T01:00:52;4.60;99.90
13186;DHT22;6658;53.080;7.428;2023-02-02T01:03:18;4.50;99.90
13186;DHT22;6658;53.080;7.428;2023-02-02T01:05:44;4.50;99.90
13186;DHT22;6658;53.080;7.428;2023-02-02T01:08:10;4.40;99.90
13186;DHT22;6658;53.080;7.428;2023-02-02T01:10:35;4.40;99.90
13186;DHT22;6658;53.080;7.428;2023-02-02T01:13:01;4.40;99.90
13186;DHT22;6658;53.080;7.428;2023-02-02T01:15:27;4.30;99.90
13186;DHT22;6658;53.080;7.428;2023-02-02T01:17:55;4.30;99.90
13186;DHT22;6658;53.080;7.428;2023-02-02T01:20:21;4.20;99.90
13186;DHT22;6658;53.080;7.428;2023-02-02T01:22:48;4.30;99.90
13186;DHT22;6658;53.080;7.428;2023-02-02T01:25:15;4.30;99.90
13186;DHT22;6658;53.080;7.428;2023-02-02T01:27:40;4.30;99.90
13186;DHT22;6658;53.080;7.428;2023-02-02T01:30:08;4.40;99.90
13186;DHT22;6658;53.080;7.428;2023-02-02T01:32:34;4.40;99.90
13186;DHT22;6658;53.080;7.428;2023-02-02T01:34:59;4.40;99.90
13186;DHT22;6658;53.080;7.428;2023-02-02T01:37:25;4.50;99.90
13186;DHT22;6658;53.080;7.428;2023-02-02T01:39:51;4.50;99.90
13186;DHT22;6658;53.080;7.428;2023-02-02T01:42:22;4.60;99.90
13186;DHT22;6658;53.080;7.428;2023-02-02T01:47:22;4.60;99.90
13186;DHT22;6658;53.080;7.428;2023-02-02T01:49:49;4.70;99.90
13186;DHT22;6658;53.080;7.428;2023-02-02T01:52:16;4.70;99.90
13186;DHT22;6658;53.080;7.428;2023-02-02T01:54:47;4.80;99.90
13186;DHT22;6658;53.080;7.428;2023-02-02T01:59:40;4.90;99.90
13186;DHT22;6658;53.080;7.428;2023-02-02T02:02:06;5.00;99.90
13186;DHT22;6658;53.080;7.428;2023-02-02T02:04:32;5.00;99.90
13186;DHT22;6658;53.080;7.428;2023-02-02T02:06:59;5.10;99.90
13186;DHT22;6658;53.080;7.428;2023-02-02T02:09:26;5.10;99.90
13186;DHT22;6658;53.080;7.428;2023-02-02T02:11:53;5.10;99.90
13186;DHT22;6658;53.080;7.428;2023-02-02T02:14:19;5.10;99.90
13186;DHT22;6658;53.080;7.428;2023-02-02T02:42:43;5.00;99.90
13186;DHT22;6658;53.080;7.428;2023-02-02T02:45:10;5.00;99.90
13186;DHT22;6658;53.080;7.428;2023-02-02T02:47:38;5.00;99.90
13186;DHT22;6658;53.080;7.428;2023-02-02T02:50:04;4.90;99.90
13186;DHT22;6658;53.080;7.428;2023-02-02T02:52:31;4.80;99.90
13186;DHT22;6658;53.080;7.428;2023-02-02T02:54:58;4.80;99.90
13186;DHT22;6658;53.080;7.428;2023-02-02T02:57:43;4.70;99.90
13186;DHT22;6658;53.080;7.428;2023-02-02T03:03:26;4.70;99.90
13186;DHT22;6658;53.080;7.428;2023-02-02T03:06:19;4.70;99.90
13186;DHT22;6658;53.080;7.428;2023-02-02T03:08:57;4.70;99.90
13186;DHT22;6658;53.080;7.428;2023-02-02T03:11:24;4.70;99.90
13186;DHT22;6658;53.080;7.428;2023-02-02T03:13:50;4.70;99.90
13186;DHT22;6658;53.080;7.428;2023-02-02T03:16:16;4.70;99.90
13186;DHT22;6658;53.080;7.428;2023-02-02T03:18:42;4.70;99.90
13186;DHT22;6658;53.080;7.428;2023-02-02T03:21:08;4.70;99.90
13186;DHT22;6658;53.080;7.428;2023-02-02T03:23:34;4.80;99.90
13186;DHT22;6658;53.080;7.428;2023-02-02T03:26:00;4.80;99.90
13186;DHT22;6658;53.080;7.428;2023-02-02T03:28:27;4.80;99.90
13186;DHT22;6658;53.080;7.428;2023-02-02T03:30:54;4.80;99.90
13186;DHT22;6658;53.080;7.428;2023-02-02T03:33:22;4.90;99.90
13186;DHT22;6658;53.080;7.428;2023-02-02T03:35:47;4.90;99.90
13186;DHT22;6658;53.080;7.428;2023-02-02T03:38:13;4.90;99.90
13186;DHT22;6658;53.080;7.428;2023-02-02T03:40:39;5.00;99.90
13186;DHT22;6658;53.080;7.428;2023-02-02T03:43:05;5.00;99.90
13186;DHT22;6658;53.080;7.428;2023-02-02T03:45:31;5.10;99.90
13186;DHT22;6658;53.080;7.428;2023-02-02T03:48:01;5.10;99.90
13186;DHT22;6658;53.080;7.428;2023-02-02T03:50:27;5.10;99.90
13186;DHT22;6658;53.080;7.428;2023-02-02T03:52:53;5.10;99.90
13186;DHT22;6658;53.080;7.428;2023-02-02T03:55:20;5.20;99.90
13186;DHT22;6658;53.080;7.428;2023-02-02T03:57:45;5.20;99.90
13186;DHT22;6658;53.080;7.428;2023-02-02T04:00:11;5.20;99.90
13186;DHT22;6658;53.080;7.428;2023-02-02T04:02:37;5.30;99.90
13186;DHT22;6658;53.080;7.428;2023-02-02T04:05:03;5.30;99.90
13186;DHT22;6658;53.080;7.428;2023-02-02T04:07:29;5.30;99.90
13186;DHT22;6658;53.080;7.428;2023-02-02T04:09:54;5.30;99.90
13186;DHT22;6658;53.080;7.428;2023-02-02T04:12:20;5.30;99.90
13186;DHT22;6658;53.080;7.428;2023-02-02T04:14:46;5.40;99.90
13186;DHT22;6658;53.080;7.428;2023-02-02T04:17:11;5.40;99.90
13186;DHT22;6658;53.080;7.428;2023-02-02T04:19:37;5.40;99.90
13186;DHT22;6658;53.080;7.428;2023-02-02T04:22:03;5.40;99.90
13186;DHT22;6658;53.080;7.428;2023-02-02T04:24:28;5.50;99.90
13186;DHT22;6658;53.080;7.428;2023-02-02T04:26:54;5.50;99.90
13186;DHT22;6658;53.080;7.428;2023-02-02T04:29:20;5.50;99.90
13186;DHT22;6658;53.080;7.428;2023-02-02T04:31:45;5.50;99.90
13186;DHT22;6658;53.080;7.428;2023-02-02T04:34:14;5.50;99.90
13186;DHT22;6658;53.080;7.428;2023-02-02T04:36:40;5.50;99.90
13186;DHT22;6658;53.080;7.428;2023-02-02T04:39:05;5.50;99.90
13186;DHT22;6658;53.080;7.428;2023-02-02T04:41:31;5.50;99.90
13186;DHT22;6658;53.080;7.428;2023-02-02T04:43:57;5.50;99.90
13186;DHT22;6658;53.080;7.428;2023-02-02T04:46:22;5.60;99.90
13186;DHT22;6658;53.080;7.428;2023-02-02T04:48:49;5.70;99.90
13186;DHT22;6658;53.080;7.428;2023-02-02T04:51:15;5.70;99.90
13186;DHT22;6658;53.080;7.428;2023-02-02T04:53:41;5.80;99.90
13186;DHT22;6658;53.080;7.428;2023-02-02T04:56:11;5.80;99.90
13186;DHT22;6658;53.080;7.428;2023-02-02T04:58:37;5.90;99.90
13186;DHT22;6658;53.080;7.428;2023-02-02T05:01:12;5.90;99.90
13186;DHT22;6658;53.080;7.428;2023-02-02T05:03:39;5.90;99.90
13186;DHT22;6658;53.080;7.428;2023-02-02T05:06:05;6.00;99.90
13186;DHT22;6658;53.080;7.428;2023-02-02T05:08:31;6.00;99.90
13186;DHT22;6658;53.080;7.428;2023-02-02T05:10:56;6.10;99.90
13186;DHT22;6658;53.080;7.428;2023-02-02T05:13:22;6.10;99.90
13186;DHT22;6658;53.080;7.428;2023-02-02T05:15:48;6.10;99.90
13186;DHT22;6658;53.080;7.428;2023-02-02T05:18:14;6.10;99.90
13186;DHT22;6658;53.080;7.428;2023-02-02T05:20:39;6.10;99.90
13186;DHT22;6658;53.080;7.428;2023-02-02T05:23:05;6.10;99.90
13186;DHT22;6658;53.080;7.428;2023-02-02T05:25:31;6.10;99.90
13186;DHT22;6658;53.080;7.428;2023-02-02T05:27:57;6.10;99.90
13186;DHT22;6658;53.080;7.428;2023-02-02T05:30:23;6.10;99.90
13186;DHT22;6658;53.080;7.428;2023-02-02T05:32:48;6.10;99.90
13186;DHT22;6658;53.080;7.428;2023-02-02T05:35:14;6.10;99.90
13186;DHT22;6658;53.080;7.428;2023-02-02T05:37:41;6.10;99.90
13186;DHT22;6658;53.080;7.428;2023-02-02T05:40:08;6.00;99.90
13186;DHT22;6658;53.080;7.428;2023-02-02T05:42:34;6.00;99.90
13186;DHT22;6658;53.080;7.428;2023-02-02T05:44:59;5.90;99.90
13186;DHT22;6658;53.080;7.428;2023-02-02T05:47:25;5.80;99.90
13186;DHT22;6658;53.080;7.428;2023-02-02T05:49:51;5.80;99.90
13186;DHT22;6658;53.080;7.428;2023-02-02T05:52:19;5.70;99.90
13186;DHT22;6658;53.080;7.428;2023-02-02T05:54:45;5.70;99.90
13186;DHT22;6658;53.080;7.428;2023-02-02T05:57:11;5.70;99.90
13186;DHT22;6658;53.080;7.428;2023-02-02T05:59:37;5.70;99.90
13186;DHT22;6658;53.080;7.428;2023-02-02T06:02:03;5.70;99.90
13186;DHT22;6658;53.080;7.428;2023-02-02T06:04:29;5.70;99.90
13186;DHT22;6658;53.080;7.428;2023-02-02T06:06:54;5.60;99.90
13186;DHT22;6658;53.080;7.428;2023-02-02T06:09:20;5.60;99.90
13186;DHT22;6658;53.080;7.428;2023-02-02T06:11:48;5.60;99.90
13186;DHT22;6658;53.080;7.428;2023-02-02T06:14:14;5.60;99.90
13186;DHT22;6658;53.080;7.428;2023-02-02T06:16:39;5.50;99.90
13186;DHT22;6658;53.080;7.428;2023-02-02T06:19:05;5.50;99.90
13186;DHT22;6658;53.080;7.428;2023-02-02T06:21:31;5.50;99.90
13186;DHT22;6658;53.080;7.428;2023-02-02T06:23:57;5.50;99.90
13186;DHT22;6658;53.080;7.428;2023-02-02T06:26:23;5.50;99.90
13186;DHT22;6658;53.080;7.428;2023-02-02T06:28:52;5.40;99.90
13186;DHT22;6658;53.080;7.428;2023-02-02T06:31:18;5.40;99.90
13186;DHT22;6658;53.080;7.428;2023-02-02T06:33:45;5.50;99.90
13186;DHT22;6658;53.080;7.428;2023-02-02T06:36:11;5.40;99.90
13186;DHT22;6658;53.080;7.428;2023-02-02T06:38:37;5.50;99.90
13186;DHT22;6658;53.080;7.428;2023-02-02T06:41:03;5.50;99.90
13186;DHT22;6658;53.080;7.428;2023-02-02T06:43:29;5.50;99.90
13186;DHT22;6658;53.080;7.428;2023-02-02T06:45:58;5.50;99.90
13186;DHT22;6658;53.080;7.428;2023-02-02T06:48:25;5.50;99.90
13186;DHT22;6658;53.080;7.428;2023-02-02T06:50:51;5.40;99.90
13186;DHT22;6658;53.080;7.428;2023-02-02T06:53:18;5.40;99.90
13186;DHT22;6658;53.080;7.428;2023-02-02T06:55:58;5.30;99.90
13186;DHT22;6658;53.080;7.428;2023-02-02T06:58:25;5.30;99.90
13186;DHT22;6658;53.080;7.428;2023-02-02T07:00:51;5.20;99.90
13186;DHT22;6658;53.080;7.428;2023-02-02T07:03:18;5.20;99.90
13186;DHT22;6658;53.080;7.428;2023-02-02T07:05:46;5.20;99.90
13186;DHT22;6658;53.080;7.428;2023-02-02T07:08:12;5.10;99.90
13186;DHT22;6658;53.080;7.428;2023-02-02T07:10:38;5.20;99.90
13186;DHT22;6658;53.080;7.428;2023-02-02T07:13:04;5.10;99.90
13186;DHT22;6658;53.080;7.428;2023-02-02T07:15:32;5.10;99.90
13186;DHT22;6658;53.080;7.428;2023-02-02T07:17:58;5.10;99.90
13186;DHT22;6658;53.080;7.428;2023-02-02T07:20:24;5.20;99.90
13186;DHT22;6658;53.080;7.428;2023-02-02T07:22:50;5.20;99.90
13186;DHT22;6658;53.080;7.428;2023-02-02T07:25:16;5.20;99.90
13186;DHT22;6658;53.080;7.428;2023-02-02T07:27:42;5.20;99.90
13186;DHT22;6658;53.080;7.428;2023-02-02T07:30:08;5.30;99.90
13186;DHT22;6658;53.080;7.428;2023-02-02T07:32:34;5.30;99.90
13186;DHT22;6658;53.080;7.428;2023-02-02T07:35:00;5.30;99.90
13186;DHT22;6658;53.080;7.428;2023-02-02T07:37:25;5.40;99.90
13186;DHT22;6658;53.080;7.428;2023-02-02T07:39:51;5.40;99.90
13186;DHT22;6658;53.080;7.428;2023-02-02T07:42:17;5.40;99.90
13186;DHT22;6658;53.080;7.428;2023-02-02T07:44:42;5.40;99.90
13186;DHT22;6658;53.080;7.428;2023-02-02T07:47:08;5.40;99.90
13186;DHT22;6658;53.080;7.428;2023-02-02T07:49:34;5.40;99.90
13186;DHT22;6658;53.080;7.428;2023-02-02T07:51:59;5.40;99.90
13186;DHT22;6658;53.080;7.428;2023-02-02T07:54:25;5.40;99.90
13186;DHT22;6658;53.080;7.428;2023-02-02T07:56:51;5.40;99.90
13186;DHT22;6658;53.080;7.428;2023-02-02T07:59:16;5.50;99.90
13186;DHT22;6658;53.080;7.428;2023-02-02T08:01:42;5.50;99.90
13186;DHT22;6658;53.080;7.428;2023-02-02T08:04:08;5.50;99.90
13186;DHT22;6658;53.080;7.428;2023-02-02T08:06:36;5.50;99.90
13186;DHT22;6658;53.080;7.428;2023-02-02T08:09:05;5.60;99.90
13186;DHT22;6658;53.080;7.428;2023-02-02T08:11:32;5.60;99.90
13186;DHT22;6658;53.080;7.428;2023-02-02T08:13:59;5.70;99.90
13186;DHT22;6658;53.080;7.428;2023-02-02T08:16:26;5.70;99.90
13186;DHT22;6658;53.080;7.428;2023-02-02T08:18:53;5.70;99.90
13186;DHT22;6658;53.080;7.428;2023-02-02T08:21:19;5.80;99.90
13186;DHT22;6658;53.080;7.428;2023-02-02T08:23:45;5.80;99.90
13186;DHT22;6658;53.080;7.428;2023-02-02T08:26:13;5.90;99.90
13186;DHT22;6658;53.080;7.428;2023-02-02T08:28:40;5.90;99.90
13186;DHT22;6658;53.080;7.428;2023-02-02T08:31:09;5.90;99.90
13186;DHT22;6658;53.080;7.428;2023-02-02T08:33:35;6.00;99.90
13186;DHT22;6658;53.080;7.428;2023-02-02T08:36:01;6.00;99.90
13186;DHT22;6658;53.080;7.428;2023-02-02T08:38:27;6.10;99.90
13186;DHT22;6658;53.080;7.428;2023-02-02T08:40:53;6.10;99.90
13186;DHT22;6658;53.080;7.428;2023-02-02T08:43:19;6.20;99.90
13186;DHT22;6658;53.080;7.428;2023-02-02T08:45:45;6.20;99.90
13186;DHT22;6658;53.080;7.428;2023-02-02T08:48:10;6.30;99.90
13186;DHT22;6658;53.080;7.428;2023-02-02T08:50:37;6.40;99.90
13186;DHT22;6658;53.080;7.428;2023-02-02T08:53:03;6.40;99.90
13186;DHT22;6658;53.080;7.428;2023-02-02T08:55:28;6.50;99.90
13186;DHT22;6658;53.080;7.428;2023-02-02T08:57:54;6.60;99.90
13186;DHT22;6658;53.080;7.428;2023-02-02T09:00:20;6.60;99.90
13186;DHT22;6658;53.080;7.428;2023-02-02T09:02:49;6.70;99.90
13186;DHT22;6658;53.080;7.428;2023-02-02T09:05:15;6.70;99.90
13186;DHT22;6658;53.080;7.428;2023-02-02T09:07:41;6.70;99.90
13186;DHT22;6658;53.080;7.428;2023-02-02T09:10:07;6.80;99.90
13186;DHT22;6658;53.080;7.428;2023-02-02T09:12:33;6.80;99.90
13186;DHT22;6658;53.080;7.428;2023-02-02T09:14:59;6.90;99.90
13186;DHT22;6658;53.080;7.428;2023-02-02T09:17:24;7.00;99.90
13186;DHT22;6658;53.080;7.428;2023-02-02T09:19:50;7.00;99.90
13186;DHT22;6658;53.080;7.428;2023-02-02T09:22:16;7.00;99.90
13186;DHT22;6658;53.080;7.428;2023-02-02T09:24:42;7.00;99.90
13186;DHT22;6658;53.080;7.428;2023-02-02T09:27:07;7.10;99.90
13186;DHT22;6658;53.080;7.428;2023-02-02T09:29:33;7.10;99.90
13186;DHT22;6658;53.080;7.428;2023-02-02T09:31:59;7.10;99.90
13186;DHT22;6658;53.080;7.428;2023-02-02T09:34:24;7.20;99.90
13186;DHT22;6658;53.080;7.428;2023-02-02T09:36:50;7.20;99.90
13186;DHT22;6658;53.080;7.428;2023-02-02T09:39:16;7.30;99.90
13186;DHT22;6658;53.080;7.428;2023-02-02T09:42:13;7.40;99.90
13186;DHT22;6658;53.080;7.428;2023-02-02T09:47:31;7.50;99.90
13186;DHT22;6658;53.080;7.428;2023-02-02T09:52:44;7.60;99.90
13186;DHT22;6658;53.080;7.428;2023-02-02T09:55:12;7.60;99.90
13186;DHT22;6658;53.080;7.428;2023-02-02T09:57:47;7.60;99.90
13186;DHT22;6658;53.080;7.428;2023-02-02T10:00:28;7.70;99.90
13186;DHT22;6658;53.080;7.428;2023-02-02T10:03:06;7.70;99.90
13186;DHT22;6658;53.080;7.428;2023-02-02T10:06:06;7.80;99.90
13186;DHT22;6658;53.080;7.428;2023-02-02T10:08:40;7.80;99.90
13186;DHT22;6658;53.080;7.428;2023-02-02T10:14:01;7.80;99.90
13186;DHT22;6658;53.080;7.428;2023-02-02T10:16:27;7.80;99.90
13186;DHT22;6658;53.080;7.428;2023-02-02T10:24:15;7.90;99.90
13186;DHT22;6658;53.080;7.428;2023-02-02T10:26:53;7.90;99.90
13186;DHT22;6658;53.080;7.428;2023-02-02T10:29:28;8.00;99.90
13186;DHT22;6658;53.080;7.428;2023-02-02T10:40:31;8.20;99.90
13186;DHT22;6658;53.080;7.428;2023-02-02T10:46:04;8.20;99.90
13186;DHT22;6658;53.080;7.428;2023-02-02T10:48:34;8.10;99.90
13186;DHT22;6658;53.080;7.428;2023-02-02T10:51:25;8.10;99.90
13186;DHT22;6658;53.080;7.428;2023-02-02T10:53:53;8.20;99.90
13186;DHT22;6658;53.080;7.428;2023-02-02T10:56:30;8.20;99.90
13186;DHT22;6658;53.080;7.428;2023-02-02T10:59:04;8.20;99.90
13186;DHT22;6658;53.080;7.428;2023-02-02T11:01:30;8.20;99.90
13186;DHT22;6658;53.080;7.428;2023-02-02T11:03:56;8.20;99.90
13186;DHT22;6658;53.080;7.428;2023-02-02T11:06:41;8.30;99.90
13186;DHT22;6658;53.080;7.428;2023-02-02T11:09:39;8.30;99.90
13186;DHT22;6658;53.080;7.428;2023-02-02T11:15:04;8.30;99.90
13186;DHT22;6658;53.080;7.428;2023-02-02T11:17:31;8.30;99.90
13186;DHT22;6658;53.080;7.428;2023-02-02T11:19:57;8.30;99.90
13186;DHT22;6658;53.080;7.428;2023-02-02T11:22:36;8.40;99.90
13186;DHT22;6658;53.080;7.428;2023-02-02T11:25:05;8.40;99.90
13186;DHT22;6658;53.080;7.428;2023-02-02T11:27:37;8.40;99.90
13186;DHT22;6658;53.080;7.428;2023-02-02T11:30:33;8.50;99.90
13186;DHT22;6658;53.080;7.428;2023-02-02T11:36:22;8.50;99.90
13186;DHT22;6658;53.080;7.428;2023-02-02T11:38:47;8.50;99.90
13186;DHT22;6658;53.080;7.428;2023-02-02T11:41:13;8.40;99.90
13186;DHT22;6658;53.080;7.428;2023-02-02T11:43:51;8.50;99.90
13186;DHT22;6658;53.080;7.428;2023-02-02T11:46:23;8.50;99.90
13186;DHT22;6658;53.080;7.428;2023-02-02T11:49:01;8.50;99.90
13186;DHT22;6658;53.080;7.428;2023-02-02T11:51:29;8.50;99.90
13186;DHT22;6658;53.080;7.428;2023-02-02T11:54:14;8.40;99.90
13186;DHT22;6658;53.080;7.428;2023-02-02T11:56:41;8.50;99.90
13186;DHT22;6658;53.080;7.428;2023-02-02T12:04:48;8.40;99.90
13186;DHT22;6658;53.080;7.428;2023-02-02T12:07:27;8.40;99.90
13186;DHT22;6658;53.080;7.428;2023-02-02T12:09:57;8.40;99.90
13186;DHT22;6658;53.080;7.428;2023-02-02T12:21:13;8.30;99.90
13186;DHT22;6658;53.080;7.428;2023-02-02T12:23:45;8.30;99.90
13186;DHT22;6658;53.080;7.428;2023-02-02T12:31:47;8.20;99.90
13186;DHT22;6658;53.080;7.428;2023-02-02T12:34:42;8.20;99.90
13186;DHT22;6658;53.080;7.428;2023-02-02T12:48:30;8.10;99.90
13186;DHT22;6658;53.080;7.428;2023-02-02T12:56:54;8.20;99.90
13186;DHT22;6658;53.080;7.428;2023-02-02T13:10:29;8.00;99.90
13186;DHT22;6658;53.080;7.428;2023-02-02T13:13:00;8.00;99.90
13186;DHT22;6658;53.080;7.428;2023-02-02T13:15:41;8.10;99.90
13186;DHT22;6658;53.080;7.428;2023-02-02T13:18:18;8.10;99.90
13186;DHT22;6658;53.080;7.428;2023-02-02T13:20:54;8.10;99.90
13186;DHT22;6658;53.080;7.428;2023-02-02T13:23:31;8.00;99.90
13186;DHT22;6658;53.080;7.428;2023-02-02T13:26:10;8.00;99.90
13186;DHT22;6658;53.080;7.428;2023-02-02T13:29:00;8.00;99.90
13186;DHT22;6658;53.080;7.428;2023-02-02T13:34:21;8.00;99.90
13186;DHT22;6658;53.080;7.428;2023-02-02T13:36:58;8.00;99.90
13186;DHT22;6658;53.080;7.428;2023-02-02T13:39:36;8.00;99.90
13186;DHT22;6658;53.080;7.428;2023-02-02T13:42:05;8.00;99.90
13186;DHT22;6658;53.080;7.428;2023-02-02T13:44:45;8.00;99.90
13186;DHT22;6658;53.080;7.428;2023-02-02T13:47:29;8.00;99.90
13186;DHT22;6658;53.080;7.428;2023-02-02T13:50:03;8.00;99.90
13186;DHT22;6658;53.080;7.428;2023-02-02T14:00:44;8.00;99.90
13186;DHT22;6658;53.080;7.428;2023-02-02T14:03:30;8.00;99.90
13186;DHT22;6658;53.080;7.428;2023-02-02T14:08:29;7.90;99.90
13186;DHT22;6658;53.080;7.428;2023-02-02T14:10:58;7.90;99.90
13186;DHT22;6658;53.080;7.428;2023-02-02T14:13:47;7.80;99.90
13186;DHT22;6658;53.080;7.428;2023-02-02T14:18:59;7.80;99.90
13186;DHT22;6658;53.080;7.428;2023-02-02T14:24:02;7.80;99.90
13186;DHT22;6658;53.080;7.428;2023-02-02T14:26:44;7.80;99.90
13186;DHT22;6658;53.080;7.428;2023-02-02T14:34:37;7.80;99.90
13186;DHT22;6658;53.080;7.428;2023-02-02T14:47:50;7.40;99.90
13186;DHT22;6658;53.080;7.428;2023-02-02T14:50:26;7.40;99.90
13186;DHT22;6658;53.080;7.428;2023-02-02T14:55:28;7.30;99.90
13186;DHT22;6658;53.080;7.428;2023-02-02T14:58:03;7.30;99.90
13186;DHT22;6658;53.080;7.428;2023-02-02T15:00:32;7.20;99.90
13186;DHT22;6658;53.080;7.428;2023-02-02T15:04:20;7.20;99.90
13186;DHT22;6658;53.080;7.428;2023-02-02T15:09:54;7.20;99.90
13186;DHT22;6658;53.080;7.428;2023-02-02T15:15:14;7.10;99.90
13186;DHT22;6658;53.080;7.428;2023-02-02T15:23:01;7.00;99.90
13186;DHT22;6658;53.080;7.428;2023-02-02T15:31:44;7.00;99.90
13186;DHT22;6658;53.080;7.428;2023-02-02T15:34:21;7.00;99.90
13186;DHT22;6658;53.080;7.428;2023-02-02T15:36:52;6.90;99.90
13186;DHT22;6658;53.080;7.428;2023-02-02T15:39:44;6.90;99.90
13186;DHT22;6658;53.080;7.428;2023-02-02T15:42:18;6.90;99.90
13186;DHT22;6658;53.080;7.428;2023-02-02T15:45:04;6.90;99.90
13186;DHT22;6658;53.080;7.428;2023-02-02T15:47:36;6.90;99.90
13186;DHT22;6658;53.080;7.428;2023-02-02T15:50:16;6.80;99.90
13186;DHT22;6658;53.080;7.428;2023-02-02T15:52:46;6.80;99.90
13186;DHT22;6658;53.080;7.428;2023-02-02T15:55:28;6.80;99.90
13186;DHT22;6658;53.080;7.428;2023-02-02T15:57:54;6.80;99.90
13186;DHT22;6658;53.080;7.428;2023-02-02T16:00:34;6.70;99.90
13186;DHT22;6658;53.080;7.428;2023-02-02T16:03:11;6.70;99.90
13186;DHT22;6658;53.080;7.428;2023-02-02T16:05:47;6.70;99.90
13186;DHT22;6658;53.080;7.428;2023-02-02T16:08:20;6.70;99.90
13186;DHT22;6658;53.080;7.428;2023-02-02T16:10:48;6.70;99.90
13186;DHT22;6658;53.080;7.428;2023-02-02T16:13:23;6.60;99.90
13186;DHT22;6658;53.080;7.428;2023-02-02T16:16:05;6.60;99.90
13186;DHT22;6658;53.080;7.428;2023-02-02T16:18:33;6.60;99.90
13186;DHT22;6658;53.080;7.428;2023-02-02T16:21:08;6.60;99.90
13186;DHT22;6658;53.080;7.428;2023-02-02T16:23:39;6.60;99.90
13186;DHT22;6658;53.080;7.428;2023-02-02T16:26:05;6.60;99.90
13186;DHT22;6658;53.080;7.428;2023-02-02T16:28:31;6.60;99.90
13186;DHT22;6658;53.080;7.428;2023-02-02T16:31:01;6.60;99.90
13186;DHT22;6658;53.080;7.428;2023-02-02T16:35:59;6.60;99.90
13186;DHT22;6658;53.080;7.428;2023-02-02T16:38:32;6.60;99.90
13186;DHT22;6658;53.080;7.428;2023-02-02T16:41:06;6.60;99.90
13186;DHT22;6658;53.080;7.428;2023-02-02T16:43:34;6.50;99.90
13186;DHT22;6658;53.080;7.428;2023-02-02T16:46:07;6.50;99.90
13186;DHT22;6658;53.080;7.428;2023-02-02T16:48:43;6.50;99.90
13186;DHT22;6658;53.080;7.428;2023-02-02T16:53:44;6.50;99.90
13186;DHT22;6658;53.080;7.428;2023-02-02T16:56:37;6.50;99.90
13186;DHT22;6658;53.080;7.428;2023-02-02T16:59:24;6.50;99.90
13186;DHT22;6658;53.080;7.428;2023-02-02T17:01:56;6.50;99.90
13186;DHT22;6658;53.080;7.428;2023-02-02T17:04:30;6.50;99.90
13186;DHT22;6658;53.080;7.428;2023-02-02T17:07:09;6.50;99.90
13186;DHT22;6658;53.080;7.428;2023-02-02T17:12:38;6.60;99.90
13186;DHT22;6658;53.080;7.428;2023-02-02T17:17:46;6.60;99.90
13186;DHT22;6658;53.080;7.428;2023-02-02T17:20:13;6.60;99.90
13186;DHT22;6658;53.080;7.428;2023-02-02T17:22:42;6.60;99.90
13186;DHT22;6658;53.080;7.428;2023-02-02T17:25:19;6.60;99.90
13186;DHT22;6658;53.080;7.428;2023-02-02T17:27:46;6.60;99.90
13186;DHT22;6658;53.080;7.428;2023-02-02T17:30:17;6.70;99.90
13186;DHT22;6658;53.080;7.428;2023-02-02T17:32:43;6.70;99.90
13186;DHT22;6658;53.080;7.428;2023-02-02T17:35:35;6.70;99.90
13186;DHT22;6658;53.080;7.428;2023-02-02T17:38:01;6.70;99.90
13186;DHT22;6658;53.080;7.428;2023-02-02T17:40:27;6.80;99.90
13186;DHT22;6658;53.080;7.428;2023-02-02T17:42:52;6.90;99.90
13186;DHT22;6658;53.080;7.428;2023-02-02T17:45:28;6.90;99.90
13186;DHT22;6658;53.080;7.428;2023-02-02T17:47:54;6.90;99.90
13186;DHT22;6658;53.080;7.428;2023-02-02T17:50:19;6.90;99.90
13186;DHT22;6658;53.080;7.428;2023-02-02T17:52:46;7.00;99.90
13186;DHT22;6658;53.080;7.428;2023-02-02T17:55:18;7.00;99.90
13186;DHT22;6658;53.080;7.428;2023-02-02T17:57:45;7.10;99.90
13186;DHT22;6658;53.080;7.428;2023-02-02T18:00:11;7.10;99.90
13186;DHT22;6658;53.080;7.428;2023-02-02T18:02:37;7.10;99.90
13186;DHT22;6658;53.080;7.428;2023-02-02T18:05:04;7.10;99.90
13186;DHT22;6658;53.080;7.428;2023-02-02T18:07:30;7.20;99.90
13186;DHT22;6658;53.080;7.428;2023-02-02T18:09:55;7.20;99.90
13186;DHT22;6658;53.080;7.428;2023-02-02T18:12:21;7.20;99.90
13186;DHT22;6658;53.080;7.428;2023-02-02T18:14:47;7.30;99.90
13186;DHT22;6658;53.080;7.428;2023-02-02T18:17:12;7.30;99.90
13186;DHT22;6658;53.080;7.428;2023-02-02T18:19:38;7.30;99.90
13186;DHT22;6658;53.080;7.428;2023-02-02T18:22:11;7.40;99.90
13186;DHT22;6658;53.080;7.428;2023-02-02T18:24:40;7.40;99.90
13186;DHT22;6658;53.080;7.428;2023-02-02T18:27:06;7.40;99.90
13186;DHT22;6658;53.080;7.428;2023-02-02T18:29:32;7.50;99.90
13186;DHT22;6658;53.080;7.428;2023-02-02T18:31:58;7.50;99.90
13186;DHT22;6658;53.080;7.428;2023-02-02T18:34:27;7.50;99.90
13186;DHT22;6658;53.080;7.428;2023-02-02T18:36:52;7.60;99.90
13186;DHT22;6658;53.080;7.428;2023-02-02T18:39:18;7.60;99.90
13186;DHT22;6658;53.080;7.428;2023-02-02T18:41:44;7.60;99.90
13186;DHT22;6658;53.080;7.428;2023-02-02T18:44:10;7.60;99.90
13186;DHT22;6658;53.080;7.428;2023-02-02T18:46:36;7.70;99.90
13186;DHT22;6658;53.080;7.428;2023-02-02T18:49:01;7.70;99.90
13186;DHT22;6658;53.080;7.428;2023-02-02T18:51:27;7.70;99.90
13186;DHT22;6658;53.080;7.428;2023-02-02T18:53:53;7.70;99.90
13186;DHT22;6658;53.080;7.428;2023-02-02T18:56:24;7.80;99.90
13186;DHT22;6658;53.080;7.428;2023-02-02T18:58:51;7.80;99.90
13186;DHT22;6658;53.080;7.428;2023-02-02T19:01:17;7.80;99.90
13186;DHT22;6658;53.080;7.428;2023-02-02T19:03:48;7.80;99.90
13186;DHT22;6658;53.080;7.428;2023-02-02T19:06:14;7.80;99.90
13186;DHT22;6658;53.080;7.428;2023-02-02T19:08:58;7.80;99.90
13186;DHT22;6658;53.080;7.428;2023-02-02T19:11:30;7.90;99.90
13186;DHT22;6658;53.080;7.428;2023-02-02T19:13:58;7.90;99.90
13186;DHT22;6658;53.080;7.428;2023-02-02T19:16:29;7.90;99.90